createdAt,value
2022-11-08T00:01:56.796Z,-2.9373
2022-11-08T00:06:59.896Z,-3.12878
2022-11-08T00:12:01.786Z,-2.79726
2022-11-08T00:17:03.462Z,-2.56132
2022-11-08T00:22:05.593Z,-3.17769
2022-11-08T00:27:08.537Z,-3.65528
2022-11-08T00:32:10.289Z,-3.70323
2022-11-08T00:37:12.337Z,-4.26402
2022-11-08T00:42:13.973Z,-3.80834
2022-11-08T00:47:15.632Z,-3.99665
2022-11-08T00:52:17.432Z,-3.9487
2022-11-08T00:57:22.236Z,-3.35043
2022-11-08T01:02:26.476Z,-3.72641
2022-11-08T01:07:28.263Z,-3.97315
2022-11-08T01:12:29.857Z,-3.57494
2022-11-08T01:17:31.521Z,-3.14561
2022-11-08T01:22:33.146Z,-4.1497
2022-11-08T01:27:34.858Z,-3.96489
2022-11-08T01:32:36.483Z,-3.91758
2022-11-08T01:37:38.261Z,-3.99823
2022-11-08T01:42:39.964Z,-3.52032
2022-11-08T01:47:41.869Z,-3.5054
2022-11-08T01:52:43.483Z,-3.21579
2022-11-08T01:57:45.230Z,-3.31741
2022-11-08T02:02:47.046Z,-3.09512
2022-11-08T02:07:48.665Z,-3.26628
2022-11-08T02:12:51.384Z,-2.94619
2022-11-08T02:17:53.111Z,-2.54766
2022-11-08T02:22:54.838Z,-2.34221
2022-11-08T02:27:56.625Z,-2.61403
2022-11-08T02:32:58.365Z,-2.35142
2022-11-08T02:38:00.166Z,-2.42382
2022-11-08T02:43:01.938Z,-2.89951
2022-11-08T02:48:03.831Z,-3.16181
2022-11-08T02:53:05.552Z,-3.29709
2022-11-08T02:58:07.416Z,-3.7623
2022-11-08T03:03:09.511Z,-3.29582
2022-11-08T03:08:11.238Z,-3.38028
2022-11-08T03:13:12.865Z,-3.77849
2022-11-08T03:18:14.779Z,-3.82454
2022-11-08T03:23:16.583Z,-3.71244
2022-11-08T03:28:22.687Z,-3.37901
2022-11-08T03:33:24.865Z,-3.22024
2022-11-08T03:38:26.577Z,-3.75277
2022-11-08T03:43:28.243Z,-3.46952
2022-11-08T03:48:29.993Z,-2.62896
2022-11-08T03:53:31.847Z,-2.93984
2022-11-08T03:58:33.691Z,-2.69533
2022-11-08T04:03:35.352Z,-3.49111
2022-11-08T04:08:37.154Z,-3.03415
2022-11-08T04:13:38.947Z,-2.95223
2022-11-08T04:18:40.617Z,-3.42284
2022-11-08T04:23:42.267Z,-3.76484
2022-11-08T04:28:43.983Z,-3.58891
2022-11-08T04:33:45.740Z,-3.38282
2022-11-08T04:38:47.441Z,-2.99382
2022-11-08T04:43:49.060Z,-4.19607
2022-11-08T04:48:51.572Z,-5.02867
2022-11-08T04:53:53.313Z,-4.91181
2022-11-08T04:58:55.793Z,-4.24814
2022-11-08T05:03:57.902Z,-3.93282
2022-11-08T05:08:59.522Z,-3.9198
2022-11-08T05:14:01.225Z,-3.49841
2022-11-08T05:19:06.124Z,-4.05317
2022-11-08T05:24:14.572Z,-3.44951
2022-11-08T05:29:16.426Z,-3.05384
2022-11-08T05:34:18.317Z,-3.42665
2022-11-08T05:39:20.212Z,-4.32626
2022-11-08T05:44:23.352Z,-4.72986
2022-11-08T05:49:24.981Z,-4.5441
2022-11-08T05:54:31.740Z,-4.49901
2022-11-08T05:59:33.664Z,-3.94965
2022-11-08T06:04:35.517Z,-3.89217
2022-11-08T06:09:37.144Z,-3.84581
2022-11-08T06:14:39.025Z,-3.35551
2022-11-08T06:19:40.766Z,-3.71625
2022-11-08T06:24:42.431Z,-3.90297
2022-11-08T06:29:44.535Z,-3.21865
2022-11-08T06:34:46.206Z,-3.205
2022-11-08T06:39:48.544Z,-3.29772
2022-11-08T06:44:50.272Z,-3.71212
2022-11-08T06:49:52.068Z,-4.49265
2022-11-08T06:54:53.914Z,-4.49265
2022-11-08T06:59:55.748Z,-4.73431
2022-11-08T07:04:58.001Z,-4.73462
2022-11-08T07:10:03.608Z,-4.66794
2022-11-08T07:15:06.260Z,-4.89244
2022-11-08T07:20:08.254Z,-4.83275
2022-11-08T07:25:09.958Z,-4.73081
2022-11-08T07:30:12.444Z,-4.64793
2022-11-08T07:35:14.135Z,-4.72446
2022-11-08T07:40:16.728Z,-4.82385
2022-11-08T07:45:19.059Z,-4.82735
2022-11-08T07:50:21.572Z,-4.54791
2022-11-08T07:55:23.721Z,-4.63428
2022-11-08T08:00:25.558Z,-4.57839
2022-11-08T08:05:29.961Z,-4.58062
2022-11-08T08:10:31.777Z,-4.72764
2022-11-08T08:15:33.630Z,-4.79305
2022-11-08T08:20:35.311Z,-4.41994
2022-11-08T08:25:36.962Z,-4.20369
2022-11-08T08:30:38.892Z,-4.1497
2022-11-08T08:35:40.828Z,-4.1532
2022-11-08T08:40:42.814Z,-4.52377
2022-11-08T08:45:44.454Z,-3.83597
2022-11-08T08:50:46.067Z,-4.2275
2022-11-08T08:55:47.825Z,-4.67556
2022-11-08T09:06:21.248Z,-5.2192
2022-11-08T09:11:22.941Z,-5.04106
2022-11-08T09:16:24.577Z,-4.7632
2022-11-08T09:21:26.550Z,-4.73589
2022-11-08T09:26:28.697Z,-4.98358
2022-11-08T09:31:30.320Z,-4.99628
2022-11-08T09:36:31.924Z,-5.1106
2022-11-08T09:41:33.597Z,-5.4872
2022-11-08T09:46:35.278Z,-4.65651
2022-11-08T09:51:36.939Z,-4.64317
2022-11-08T09:56:38.532Z,-5.00263
2022-11-08T10:01:40.329Z,-5.18681
2022-11-08T10:06:42.120Z,-4.98961
2022-11-08T10:11:43.861Z,-4.65238
2022-11-08T10:16:45.516Z,-4.25862
2022-11-08T10:21:47.155Z,-3.93822
2022-11-08T10:26:48.970Z,-3.54986
2022-11-08T10:31:50.948Z,-4.08111
2022-11-08T10:36:52.663Z,-4.72669
2022-11-08T10:41:54.296Z,-4.49138
2022-11-08T10:46:55.921Z,-4.23004
2022-11-08T10:51:57.611Z,-4.20083
2022-11-08T10:56:59.374Z,-4.5206
2022-11-08T11:02:01.063Z,-4.5387
2022-11-08T11:07:02.772Z,-4.51012
2022-11-08T11:12:04.514Z,-4.29038
2022-11-08T11:17:06.283Z,-3.9379
2022-11-08T11:22:07.940Z,-3.88138
2022-11-08T11:27:09.592Z,-4.04206
2022-11-08T11:32:11.418Z,-4.08207
2022-11-08T11:37:13.142Z,-4.01538
2022-11-08T11:42:43.840Z,-4.24243
2022-11-08T11:47:46.911Z,-3.58002
2022-11-08T11:52:48.709Z,-3.69402
2022-11-08T11:57:50.264Z,-3.72355
2022-11-08T12:02:52.157Z,-3.18118
2022-11-08T12:07:53.793Z,-3.62543
2022-11-08T12:12:55.423Z,-3.87566
2022-11-08T12:17:57.091Z,-3.68704
2022-11-08T12:22:58.835Z,-3.36758
2022-11-08T12:28:00.606Z,-3.51334
2022-11-08T12:33:02.328Z,-3.55049
2022-11-08T12:38:03.980Z,-3.03923
2022-11-08T12:43:05.676Z,-3.06813
2022-11-08T12:48:07.522Z,-3.06337
2022-11-08T12:53:09.125Z,-3.78484
2022-11-08T12:58:10.759Z,-3.35012
2022-11-08T13:03:12.464Z,-3.73086
2022-11-08T13:08:14.091Z,-4.32181
2022-11-08T13:13:15.740Z,-4.39961
2022-11-08T13:18:17.787Z,-3.93949
2022-11-08T13:23:19.609Z,-4.39866
2022-11-08T13:28:21.288Z,-4.5984
2022-11-08T13:33:23.029Z,-4.15415
2022-11-08T13:38:24.693Z,-4.10207
2022-11-08T13:43:26.392Z,-4.12049
2022-11-08T13:48:28.492Z,-4.05031
2022-11-08T13:53:32.596Z,-3.8493
2022-11-08T13:58:34.608Z,-3.80548
2022-11-08T14:03:36.430Z,-3.89408
2022-11-08T14:08:38.115Z,-3.5416
2022-11-08T14:13:39.739Z,-3.80008
2022-11-08T14:18:41.423Z,-3.36345
2022-11-08T14:23:43.070Z,-4.03189
2022-11-08T14:28:44.729Z,-4.26847
2022-11-08T14:33:46.362Z,-4.25005
2022-11-08T14:38:49.371Z,-4.45582
2022-11-08T14:43:51.081Z,-4.15923
2022-11-08T14:48:52.901Z,-4.27704
2022-11-08T14:53:54.552Z,-4.27545
2022-11-08T14:58:56.298Z,-4.94357
2022-11-08T15:03:58.132Z,-5.08551
2022-11-08T15:09:00.052Z,-5.44084
2022-11-08T15:14:01.700Z,-5.39194
2022-11-08T15:19:03.365Z,-5.35161
2022-11-08T15:24:05.304Z,-5.35606
2022-11-08T15:29:07.231Z,-5.15029
2022-11-08T15:34:09.265Z,-4.86037
2022-11-08T15:39:10.874Z,-5.11441
2022-11-08T15:44:12.677Z,-4.82513
2022-11-08T15:49:16.070Z,-4.16526
2022-11-08T15:54:17.770Z,-3.29391
2022-11-08T15:59:21.548Z,-4.2637
2022-11-08T16:04:23.762Z,-4.1497
2022-11-08T16:09:25.361Z,-3.56732
2022-11-08T16:14:26.982Z,-3.28089
2022-11-08T16:19:28.659Z,-2.99382
2022-11-08T16:24:30.326Z,-2.16342
2022-11-08T16:29:32.164Z,-2.36952
2022-11-08T16:34:33.809Z,-2.03291
2022-11-08T16:39:35.403Z,-2.35269
2022-11-08T16:44:37.035Z,-1.90684
2022-11-08T16:49:38.658Z,-2.22185
2022-11-08T16:54:40.320Z,-2.75153
2022-11-08T16:59:42.058Z,-2.25647
2022-11-08T17:04:43.714Z,-2.46986
2022-11-08T17:09:45.354Z,-3.37743
2022-11-08T17:14:47.179Z,-3.06623
2022-11-08T17:19:48.810Z,-3.07766
2022-11-08T17:24:50.569Z,-2.92428
2022-11-08T17:29:52.271Z,-3.08052
2022-11-08T17:34:53.974Z,-2.83441
2022-11-08T17:39:55.660Z,-1.40796
2022-11-08T17:44:57.416Z,-1.19075
2022-11-08T17:49:59.294Z,-2.58101
2022-11-08T17:55:00.972Z,-1.77378
2022-11-08T18:00:04.221Z,-1.68455
2022-11-08T18:05:08.289Z,-2.12754
2022-11-08T18:10:10.050Z,-2.05704
2022-11-08T18:15:12.297Z,-1.91795
2022-11-08T18:20:14.245Z,-1.86016
2022-11-08T18:25:16.347Z,-2.15421
2022-11-08T18:30:18.103Z,-0.73346
2022-11-08T18:35:19.864Z,-1.59627
2022-11-08T18:40:21.589Z,-0.65312
2022-11-08T18:45:23.905Z,-0.58897
2022-11-08T18:50:25.533Z,-0.73918
2022-11-08T18:55:27.166Z,-0.65153
2022-11-08T19:00:28.810Z,-1.08532
2022-11-08T19:05:30.476Z,-1.28379
2022-11-08T19:10:34.103Z,-0.26792
2022-11-08T19:15:35.823Z,-0.50831
2022-11-08T19:20:37.482Z,-0.73219
2022-11-08T19:25:39.105Z,-0.58548
2022-11-08T19:30:40.846Z,-0.53308
2022-11-08T19:35:42.528Z,0.31671
2022-11-08T19:40:44.255Z,0.26495
2022-11-08T19:45:50.726Z,0.29798
2022-11-08T19:50:53.336Z,-0.85572
2022-11-08T19:55:54.988Z,-0.95798
2022-11-08T20:00:56.678Z,-1.01419
2022-11-08T20:05:58.402Z,-1.42034
2022-11-08T20:11:00.140Z,-0.6709
2022-11-08T20:16:01.790Z,-0.92527
2022-11-08T20:21:03.413Z,-0.97005
2022-11-08T20:26:05.061Z,-0.93194
2022-11-08T20:31:06.731Z,-0.63947
2022-11-08T20:36:08.366Z,-0.32603
2022-11-08T20:41:10.013Z,-0.6147
2022-11-08T20:46:11.708Z,1.02583
2022-11-08T20:51:13.432Z,-0.58929
2022-11-08T20:56:15.175Z,-0.56802
2022-11-08T21:01:16.961Z,-0.71981
2022-11-08T21:06:18.783Z,-0.53848
2022-11-08T21:11:20.428Z,-0.64995
2022-11-08T21:16:29.928Z,-0.60835
2022-11-08T21:21:32.502Z,0.12713
2022-11-08T21:26:36.064Z,-0.34858
2022-11-08T21:31:38.308Z,-0.23775
2022-11-08T21:36:39.949Z,1.30148
2022-11-08T21:41:41.579Z,0.04615
2022-11-08T21:46:43.342Z,0.39896
2022-11-08T21:51:44.949Z,-0.22251
2022-11-08T21:56:46.616Z,-0.57691
2022-11-08T22:01:48.210Z,-0.17011
2022-11-08T22:06:50.044Z,-1.32984
2022-11-08T22:11:51.740Z,-1.03514
2022-11-08T22:16:53.360Z,-0.4159
2022-11-08T22:21:55.053Z,-0.55404
2022-11-08T22:26:56.881Z,-1.69312
2022-11-08T22:31:58.495Z,-1.53784
2022-11-08T22:37:00.119Z,-1.9351
2022-11-08T22:42:01.751Z,-2.14151
2022-11-08T22:47:03.676Z,-2.29553
2022-11-08T22:52:05.408Z,-2.45875
2022-11-08T22:57:07.102Z,-1.99544
2022-11-08T23:02:08.915Z,-1.97892
2022-11-08T23:07:10.736Z,-2.09896
2022-11-08T23:12:13.124Z,-2.14628
2022-11-08T23:17:14.795Z,-2.29457
2022-11-08T23:22:16.458Z,-2.48129
2022-11-08T23:27:18.333Z,-2.34633
2022-11-08T23:32:20.090Z,-2.52607
2022-11-08T23:37:21.703Z,-2.24916
2022-11-08T23:42:23.319Z,-1.95034
2022-11-08T23:47:24.940Z,-2.91412
2022-11-08T23:52:26.727Z,-2.59911
2022-11-08T23:57:28.540Z,-2.60514
